Strona główna
METAR-TAF:

METAR-TAF

Lotnisko :

Westminster, Maryland, Stany Zjednoczone

Szerokość geograficzna: 39-36-30N, Długość geograficzna: 077-00-28W, wysokość: 240 m

Aktualna obserwacja pogody

Raport powstał 22 minut temu, godzina 03:40 UTC
Wiatr 9 kt od południowo-południowy zachód
Temperatura 14°C
Wilgotność 63%
Ciśnienie 1009 hPa
Widzialność: 16.1 km
bezchmurnie

METAR: KDMW 120340Z AUTO 20009KT 10SM CLR 14/07 A2979 RMK AO2

czas: 23:02 (04:02 UTC)


TAF: brakujący

Obserwacja i prognoza pogody dla ponad 4000 lotnisk (raport METAR i TAF).

Dostępne stacje oznaczono żółtymi i czerwonymi punktami na mapie.

Najedź kursorem aby zobaczyć nazwę stacji.

Kliknij aby zobaczyć obserwacje i prognozy pogody.

Aby zmienić mapę: kliknij na zielony przycisk z czarnym krzyżykiem, aby powiększyć; na zielony przycisk z myślnikiem, aby pomniejszyć; na zielone strzałki, aby przejść do map sąsiednich.


METAR-TAF: